createdAt,value
2022-12-27T00:01:30.204Z,97925.66
2022-12-27T00:04:02.149Z,97906.75
2022-12-27T00:06:32.744Z,97896.38
2022-12-27T00:09:02.845Z,97878.00
2022-12-27T00:11:33.193Z,97868.63
2022-12-27T00:14:04.386Z,97858.38
2022-12-27T00:16:35.767Z,97887.13
2022-12-27T00:19:05.415Z,97901.78
2022-12-27T00:21:40.600Z,97903.25
2022-12-27T00:24:13.336Z,97899.66
2022-12-27T00:26:45.349Z,97904.81
2022-12-27T00:29:26.502Z,97910.34
2022-12-27T00:31:58.468Z,97916.50
2022-12-27T00:34:29.567Z,97904.97
2022-12-27T00:37:00.599Z,97892.31
2022-12-27T00:39:33.588Z,97910.06
2022-12-27T00:42:03.121Z,97903.88
2022-12-27T00:44:35.364Z,97911.72
2022-12-27T00:47:05.495Z,97915.19
2022-12-27T00:49:36.054Z,97930.44
2022-12-27T00:52:07.773Z,97922.06
2022-12-27T00:54:38.278Z,97925.97
2022-12-27T00:57:10.054Z,97921.38
2022-12-27T00:59:40.607Z,97930.31
2022-12-27T01:02:13.413Z,97925.00
2022-12-27T01:04:42.010Z,97911.66
2022-12-27T01:07:12.539Z,97928.81
2022-12-27T01:09:46.550Z,97935.19
2022-12-27T01:12:25.602Z,97919.78
2022-12-27T01:14:56.461Z,97936.75
2022-12-27T01:17:26.409Z,97940.59
2022-12-27T01:19:58.311Z,97936.66
2022-12-27T01:22:30.193Z,97935.66
2022-12-27T01:25:03.960Z,97940.16
2022-12-27T01:27:34.342Z,97941.16
2022-12-27T01:30:05.664Z,97939.19
2022-12-27T01:32:36.474Z,97934.44
2022-12-27T01:35:06.412Z,97938.00
2022-12-27T01:37:40.035Z,97942.94
2022-12-27T01:40:11.217Z,97946.03
2022-12-27T01:42:56.978Z,97942.03
2022-12-27T01:45:27.844Z,97948.91
2022-12-27T01:48:02.830Z,97944.75
2022-12-27T01:50:38.762Z,97938.88
2022-12-27T01:53:13.400Z,97953.72
2022-12-27T01:55:47.510Z,97952.16
2022-12-27T01:58:23.537Z,97960.59
2022-12-27T02:00:58.330Z,97961.13
2022-12-27T02:03:30.966Z,97958.75
2022-12-27T02:06:01.620Z,97962.13
2022-12-27T02:08:43.275Z,97960.59
2022-12-27T02:11:14.763Z,97963.84
2022-12-27T02:13:50.974Z,97957.38
2022-12-27T02:16:28.341Z,97953.59
2022-12-27T02:18:58.254Z,97949.13
2022-12-27T02:21:48.017Z,97944.84
2022-12-27T02:24:42.719Z,97955.59
2022-12-27T02:27:21.586Z,97960.38
2022-12-27T02:29:59.849Z,97955.06
2022-12-27T02:32:39.644Z,97964.25
2022-12-27T02:35:19.528Z,97981.13
2022-12-27T02:37:54.533Z,97974.94
2022-12-27T02:40:49.779Z,97977.75
2022-12-27T02:43:39.599Z,97972.03
2022-12-27T02:46:40.910Z,97979.97
2022-12-27T02:49:43.202Z,97984.97
2022-12-27T02:52:36.956Z,97983.28
2022-12-27T02:55:33.811Z,97982.34
2022-12-27T02:58:21.494Z,97983.19
2022-12-27T03:01:18.797Z,97994.19
2022-12-27T03:04:12.024Z,97987.47
2022-12-27T03:06:54.274Z,97990.44
2022-12-27T03:10:01.571Z,98012.03
2022-12-27T03:13:07.626Z,98022.44
2022-12-27T03:15:59.750Z,98032.63
2022-12-27T03:18:48.505Z,98034.41
2022-12-27T03:21:43.695Z,98034.22
2022-12-27T03:24:35.382Z,98030.53
2022-12-27T03:27:18.558Z,98036.50
2022-12-27T03:30:11.222Z,98031.00
2022-12-27T03:33:06.029Z,98027.91
2022-12-27T03:36:11.142Z,98026.94
2022-12-27T03:38:50.264Z,98035.59
2022-12-27T03:41:43.420Z,98037.63
2022-12-27T03:44:28.304Z,98053.38
2022-12-27T03:47:01.303Z,98076.69
2022-12-27T03:49:41.455Z,98069.59
2022-12-27T03:52:17.267Z,98066.69
2022-12-27T03:54:50.768Z,98060.94
2022-12-27T03:57:24.966Z,98061.44
2022-12-27T03:59:58.322Z,98058.00
2022-12-27T04:02:32.220Z,98056.16
2022-12-27T04:05:04.651Z,98060.06
2022-12-27T04:07:47.305Z,98059.00
2022-12-27T04:10:37.310Z,98053.63
2022-12-27T04:13:26.007Z,98060.31
2022-12-27T04:16:14.849Z,98047.53
2022-12-27T04:19:02.136Z,98049.09
2022-12-27T04:21:55.420Z,98045.47
2022-12-27T04:24:41.656Z,98056.16
2022-12-27T04:27:34.875Z,98061.94
2022-12-27T04:30:25.310Z,98060.50
2022-12-27T04:33:14.733Z,98069.53
2022-12-27T04:35:49.404Z,98067.69
2022-12-27T04:38:21.659Z,98090.00
2022-12-27T04:41:10.199Z,98087.63
2022-12-27T04:43:59.141Z,98093.09
2022-12-27T04:46:47.800Z,98094.56
2022-12-27T04:49:42.102Z,98101.13
2022-12-27T04:52:36.394Z,98110.81
2022-12-27T04:55:17.660Z,98111.94
2022-12-27T04:57:57.333Z,98104.88
2022-12-27T05:00:50.659Z,98096.81
2022-12-27T05:03:28.624Z,98108.41
2022-12-27T05:06:09.213Z,98110.56
2022-12-27T05:09:02.295Z,98126.19
2022-12-27T05:11:52.985Z,98120.38
2022-12-27T05:14:35.539Z,98125.47
2022-12-27T05:17:15.557Z,98136.34
2022-12-27T05:19:53.251Z,98142.75
2022-12-27T05:25:49.360Z,98158.22
2022-12-27T05:28:24.818Z,98157.59
2022-12-27T05:31:03.873Z,98158.16
2022-12-27T05:33:47.861Z,98169.53
2022-12-27T05:36:20.932Z,98157.25
2022-12-27T05:38:56.372Z,98163.81
2022-12-27T05:41:28.748Z,98162.69
2022-12-27T05:44:07.892Z,98167.00
2022-12-27T05:46:40.177Z,98161.03
2022-12-27T05:49:15.648Z,98157.66
2022-12-27T05:51:48.467Z,98170.66
2022-12-27T05:54:29.289Z,98168.56
2022-12-27T05:57:03.450Z,98169.44
2022-12-27T05:59:38.265Z,98174.47
2022-12-27T06:02:11.706Z,98181.34
2022-12-27T06:04:53.974Z,98177.91
2022-12-27T06:07:32.535Z,98182.94
2022-12-27T06:10:04.435Z,98172.66
2022-12-27T06:12:41.896Z,98175.13
2022-12-27T06:15:12.999Z,98183.47
2022-12-27T06:17:44.145Z,98184.47
2022-12-27T06:20:19.012Z,98189.63
2022-12-27T06:22:50.777Z,98195.63
2022-12-27T06:25:21.977Z,98198.69
2022-12-27T06:27:52.683Z,98211.06
2022-12-27T06:30:24.161Z,98213.00
2022-12-27T06:32:55.824Z,98224.47
2022-12-27T06:35:32.964Z,98221.56
2022-12-27T06:38:03.175Z,98224.72
2022-12-27T06:40:33.881Z,98235.19
2022-12-27T06:43:05.115Z,98236.53
2022-12-27T06:45:42.474Z,98235.72
2022-12-27T06:48:14.582Z,98238.13
2022-12-27T06:50:51.788Z,98243.91
2022-12-27T06:53:27.880Z,98248.44
2022-12-27T06:56:25.030Z,98255.38
2022-12-27T06:58:55.450Z,98258.31
2022-12-27T07:01:29.924Z,98260.53
2022-12-27T07:04:05.736Z,98273.50
2022-12-27T07:06:39.805Z,98280.47
2022-12-27T07:09:15.433Z,98281.22
2022-12-27T07:11:54.372Z,98284.66
2022-12-27T07:14:26.461Z,98289.75
2022-12-27T07:16:59.762Z,98294.63
2022-12-27T07:19:30.044Z,98301.28
2022-12-27T07:22:01.162Z,98308.44
2022-12-27T07:24:34.235Z,98323.94
2022-12-27T07:27:11.103Z,98325.47
2022-12-27T07:29:45.902Z,98324.91
2022-12-27T07:32:17.520Z,98337.84
2022-12-27T07:34:50.632Z,98335.69
2022-12-27T07:37:24.563Z,98354.88
2022-12-27T07:40:06.664Z,98358.91
2022-12-27T07:42:42.278Z,98357.69
2022-12-27T07:45:14.504Z,98363.09
2022-12-27T07:47:48.983Z,98358.19
2022-12-27T07:50:21.590Z,98351.50
2022-12-27T07:52:57.428Z,98365.50
2022-12-27T07:55:32.639Z,98363.31
2022-12-27T07:58:08.223Z,98347.09
2022-12-27T08:00:40.645Z,98349.00
2022-12-27T08:03:13.339Z,98348.72
2022-12-27T08:05:47.551Z,98331.94
2022-12-27T08:08:38.016Z,98329.63
2022-12-27T08:11:09.695Z,98326.09
2022-12-27T08:13:40.641Z,98309.16
2022-12-27T08:16:18.473Z,98305.75
2022-12-27T08:18:50.088Z,98307.19
2022-12-27T08:21:24.758Z,98315.44
2022-12-27T08:24:02.208Z,98314.84
2022-12-27T08:26:31.194Z,98326.50
2022-12-27T08:29:02.755Z,98333.63
2022-12-27T08:31:35.295Z,98349.72
2022-12-27T08:34:10.850Z,98343.44
2022-12-27T08:36:55.261Z,98347.84
2022-12-27T08:39:27.455Z,98351.03
2022-12-27T08:41:57.166Z,98360.44
2022-12-27T08:44:32.396Z,98358.81
2022-12-27T08:47:04.907Z,98362.22
2022-12-27T08:49:40.155Z,98362.47
2022-12-27T08:52:20.697Z,98369.19
2022-12-27T08:54:51.557Z,98368.09
2022-12-27T08:57:27.957Z,98377.06
2022-12-27T08:59:58.255Z,98368.72
2022-12-27T09:02:34.891Z,98370.84
2022-12-27T09:05:10.444Z,98367.50
2022-12-27T09:07:46.131Z,98369.50
2022-12-27T09:10:25.686Z,98371.78
2022-12-27T09:12:55.253Z,98367.16
2022-12-27T09:15:30.638Z,98363.41
2022-12-27T09:17:59.505Z,98365.78
2022-12-27T09:20:31.644Z,98358.97
2022-12-27T09:23:06.591Z,98370.03
2022-12-27T09:25:42.683Z,98355.00
2022-12-27T09:28:12.039Z,98351.88
2022-12-27T09:30:43.586Z,98343.28
2022-12-27T09:33:12.564Z,98351.72
2022-12-27T09:35:42.332Z,98356.75
2022-12-27T09:38:11.183Z,98355.53
2022-12-27T09:40:54.612Z,98355.94
2022-12-27T09:43:27.782Z,98346.72
2022-12-27T09:46:03.374Z,98350.34
2022-12-27T09:48:39.699Z,98344.22
2022-12-27T09:51:15.521Z,98341.59
2022-12-27T09:53:50.411Z,98332.50
2022-12-27T09:56:35.689Z,98339.09
2022-12-27T09:59:19.435Z,98341.22
2022-12-27T10:01:49.292Z,98342.56
2022-12-27T10:04:22.781Z,98337.06
2022-12-27T10:07:10.764Z,98342.94
2022-12-27T10:09:49.724Z,98337.63
2022-12-27T10:12:36.948Z,98338.81
2022-12-27T10:15:16.403Z,98337.00
2022-12-27T10:17:53.575Z,98324.22
2022-12-27T10:20:35.024Z,98322.44
2022-12-27T10:23:07.934Z,98327.56
2022-12-27T10:25:42.103Z,98324.03
2022-12-27T10:28:17.922Z,98319.75
2022-12-27T10:30:47.993Z,98325.66
2022-12-27T10:33:23.670Z,98313.75
2022-12-27T10:35:54.641Z,98315.53
2022-12-27T10:38:25.627Z,98320.72
2022-12-27T10:41:01.008Z,98320.72
2022-12-27T10:43:35.274Z,98315.59
2022-12-27T10:46:14.410Z,98309.53
2022-12-27T10:49:21.233Z,98306.06
2022-12-27T10:51:49.397Z,98300.03
2022-12-27T10:54:28.459Z,98292.19
2022-12-27T10:56:59.943Z,98300.00
2022-12-27T10:59:31.359Z,98277.47
2022-12-27T11:02:19.019Z,98280.09
2022-12-27T11:05:11.646Z,98279.25
2022-12-27T11:07:44.342Z,98280.06
2022-12-27T11:10:18.522Z,98292.09
2022-12-27T11:13:08.515Z,98287.81
2022-12-27T11:15:42.421Z,98283.59
2022-12-27T11:18:18.681Z,98268.84
2022-12-27T11:20:51.330Z,98278.28
2022-12-27T11:23:26.562Z,98273.88
2022-12-27T11:25:59.100Z,98274.66
2022-12-27T11:28:34.337Z,98277.59
2022-12-27T11:31:09.260Z,98279.47
2022-12-27T11:33:44.976Z,98283.47
2022-12-27T11:36:17.678Z,98273.13
2022-12-27T11:38:52.635Z,98280.84
2022-12-27T11:41:27.859Z,98272.03
2022-12-27T11:44:02.797Z,98264.53
2022-12-27T11:46:57.006Z,98270.84
2022-12-27T11:49:34.807Z,98263.69
2022-12-27T11:52:20.171Z,98262.50
2022-12-27T11:55:06.819Z,98266.41
2022-12-27T11:57:57.782Z,98265.25
2022-12-27T12:00:32.913Z,98257.06
2022-12-27T12:03:31.740Z,98265.78
2022-12-27T12:06:17.500Z,98271.63
2022-12-27T12:09:19.115Z,98273.13
2022-12-27T12:12:06.601Z,98266.88
2022-12-27T12:15:24.592Z,98275.47
2022-12-27T12:18:03.460Z,98281.84
2022-12-27T12:21:10.822Z,98277.47
2022-12-27T12:24:09.789Z,98297.59
2022-12-27T12:26:55.722Z,98291.63
2022-12-27T12:29:41.929Z,98297.81
2022-12-27T12:32:36.264Z,98281.44
2022-12-27T12:35:34.799Z,98288.53
2022-12-27T12:38:13.775Z,98283.41
2022-12-27T12:41:24.933Z,98276.47
2022-12-27T12:44:41.150Z,98274.84
2022-12-27T12:47:24.770Z,98267.91
2022-12-27T12:50:13.336Z,98281.81
2022-12-27T12:53:10.284Z,98275.78
2022-12-27T12:55:53.820Z,98275.78
2022-12-27T12:59:07.469Z,98274.94
2022-12-27T13:01:54.301Z,98266.28
2022-12-27T13:04:42.333Z,98281.84
2022-12-27T13:07:39.308Z,98284.44
2022-12-27T13:10:35.831Z,98286.16
2022-12-27T13:13:13.097Z,98295.69
2022-12-27T13:15:54.479Z,98289.63
2022-12-27T13:18:30.705Z,98300.81
2022-12-27T13:21:09.121Z,98286.97
2022-12-27T13:23:54.825Z,98292.13
2022-12-27T13:26:37.467Z,98292.09
2022-12-27T13:29:30.616Z,98292.88
2022-12-27T13:32:16.925Z,98300.66
2022-12-27T13:34:56.515Z,98298.91
2022-12-27T13:41:06.826Z,98302.91
2022-12-27T13:43:51.856Z,98308.00
2022-12-27T13:49:39.961Z,98304.41
2022-12-27T13:52:18.153Z,98303.28
2022-12-27T13:55:31.232Z,98306.63
2022-12-27T13:58:30.640Z,98314.44
2022-12-27T14:01:17.032Z,98319.66
2022-12-27T14:04:06.701Z,98319.66
2022-12-27T14:07:15.105Z,98332.34
2022-12-27T14:10:04.977Z,98332.28
2022-12-27T14:13:03.798Z,98340.00
2022-12-27T14:15:59.360Z,98345.31
2022-12-27T14:18:46.427Z,98357.28
2022-12-27T14:21:53.204Z,98360.38
2022-12-27T14:24:58.237Z,98368.84
2022-12-27T14:28:08.580Z,98379.03
2022-12-27T14:31:10.672Z,98370.41
2022-12-27T14:34:04.051Z,98381.13
2022-12-27T14:37:05.757Z,98389.38
2022-12-27T14:40:16.361Z,98398.66
2022-12-27T14:43:13.933Z,98409.66
2022-12-27T14:46:26.311Z,98413.09
2022-12-27T14:49:39.833Z,98418.91
2022-12-27T14:52:43.164Z,98431.66
2022-12-27T14:55:28.058Z,98431.41
2022-12-27T14:58:18.022Z,98427.63
2022-12-27T15:01:07.986Z,98422.53
2022-12-27T15:04:07.697Z,98429.97
2022-12-27T15:07:02.886Z,98434.09
2022-12-27T15:09:38.885Z,98444.28
2022-12-27T15:12:20.031Z,98454.25
2022-12-27T15:15:08.757Z,98453.28
2022-12-27T15:18:20.600Z,98459.22
2022-12-27T15:21:12.344Z,98467.22
2022-12-27T15:23:54.272Z,98482.47
2022-12-27T15:26:36.701Z,98489.19
2022-12-27T15:29:27.720Z,98489.94
2022-12-27T15:32:08.152Z,98494.13
2022-12-27T15:34:48.347Z,98491.38
2022-12-27T15:38:03.832Z,98497.25
2022-12-27T15:41:00.010Z,98503.28
2022-12-27T15:43:54.478Z,98502.25
2022-12-27T15:46:41.564Z,98504.97
2022-12-27T15:49:35.324Z,98516.78
2022-12-27T15:52:14.911Z,98513.00
2022-12-27T15:55:03.369Z,98511.78
2022-12-27T15:58:29.019Z,98521.88
2022-12-27T16:01:43.795Z,98518.94
2022-12-27T16:05:05.949Z,98528.03
2022-12-27T16:07:57.218Z,98532.94
2022-12-27T16:11:05.625Z,98545.78
2022-12-27T16:13:55.916Z,98548.16
2022-12-27T16:17:01.222Z,98552.59
2022-12-27T16:19:56.011Z,98559.78
2022-12-27T16:22:34.611Z,98555.84
2022-12-27T16:25:50.776Z,98560.75
2022-12-27T16:28:33.504Z,98568.13
2022-12-27T16:31:12.896Z,98579.00
2022-12-27T16:33:44.001Z,98577.91
2022-12-27T16:36:20.697Z,98573.63
2022-12-27T16:39:10.866Z,98571.09
2022-12-27T16:42:05.421Z,98584.41
2022-12-27T16:45:11.946Z,98579.69
2022-12-27T16:48:10.339Z,98587.06
2022-12-27T16:50:50.541Z,98584.22
2022-12-27T16:53:45.326Z,98584.72
2022-12-27T16:56:24.371Z,98585.59
2022-12-27T16:58:54.062Z,98584.53
2022-12-27T17:02:02.020Z,98583.53
2022-12-27T17:05:02.303Z,98573.94
2022-12-27T17:07:53.087Z,98586.88
2022-12-27T17:11:07.632Z,98599.50
2022-12-27T17:13:53.675Z,98604.97
2022-12-27T17:19:34.490Z,98609.66
2022-12-27T17:22:13.345Z,98608.03
2022-12-27T17:25:16.536Z,98618.19
2022-12-27T17:28:14.101Z,98606.81
2022-12-27T17:30:49.524Z,98613.16
2022-12-27T17:33:38.680Z,98610.44
2022-12-27T17:36:17.239Z,98614.41
2022-12-27T17:38:56.401Z,98621.66
2022-12-27T17:41:57.331Z,98623.81
2022-12-27T17:44:42.124Z,98630.91
2022-12-27T17:47:32.229Z,98626.50
2022-12-27T17:50:05.496Z,98631.84
2022-12-27T17:52:55.331Z,98638.88
2022-12-27T17:56:19.791Z,98641.59
2022-12-27T17:59:02.771Z,98647.94
2022-12-27T18:01:41.254Z,98649.50
2022-12-27T18:04:38.904Z,98662.03
2022-12-27T18:07:10.850Z,98661.84
2022-12-27T18:09:44.559Z,98669.84
2022-12-27T18:12:17.624Z,98670.41
2022-12-27T18:14:51.954Z,98674.34
2022-12-27T18:17:28.923Z,98677.38
2022-12-27T18:19:58.177Z,98680.75
2022-12-27T18:22:27.346Z,98685.66
2022-12-27T18:24:56.011Z,98694.03
2022-12-27T18:27:28.078Z,98687.88
2022-12-27T18:29:58.479Z,98693.78
2022-12-27T18:32:27.245Z,98697.13
2022-12-27T18:34:57.726Z,98702.84
2022-12-27T18:37:27.416Z,98705.41
2022-12-27T18:39:58.911Z,98699.16
2022-12-27T18:42:30.974Z,98704.06
2022-12-27T18:45:04.485Z,98705.84
2022-12-27T18:47:36.064Z,98708.16
2022-12-27T18:50:07.176Z,98702.97
2022-12-27T18:52:40.110Z,98710.91
2022-12-27T18:55:17.632Z,98711.50
2022-12-27T18:57:47.020Z,98714.13
2022-12-27T19:00:28.089Z,98718.31
2022-12-27T19:03:14.628Z,98722.16
2022-12-27T19:05:58.590Z,98713.19
2022-12-27T19:08:29.016Z,98713.94
2022-12-27T19:10:57.844Z,98706.81
2022-12-27T19:13:29.625Z,98720.34
2022-12-27T19:16:01.786Z,98726.47
2022-12-27T19:18:34.404Z,98725.28
2022-12-27T19:21:06.460Z,98726.94
2022-12-27T19:23:38.382Z,98725.72
2022-12-27T19:26:24.439Z,98721.00
2022-12-27T19:29:02.384Z,98723.44
2022-12-27T19:31:37.158Z,98725.34
2022-12-27T19:34:09.523Z,98728.53
2022-12-27T19:36:40.335Z,98728.91
2022-12-27T19:39:17.678Z,98733.03
2022-12-27T19:41:47.007Z,98728.19
2022-12-27T19:44:17.394Z,98728.19
2022-12-27T19:46:48.883Z,98726.34
2022-12-27T19:52:10.782Z,98733.22
2022-12-27T19:54:39.949Z,98730.25
2022-12-27T19:57:10.514Z,98733.38
2022-12-27T19:59:39.872Z,98734.16
2022-12-27T20:02:17.534Z,98738.19
2022-12-27T20:04:54.873Z,98732.94
2022-12-27T20:07:26.541Z,98732.81
2022-12-27T20:09:55.281Z,98732.81
2022-12-27T20:12:28.314Z,98729.56
2022-12-27T20:14:58.539Z,98726.75
2022-12-27T20:17:32.596Z,98722.44
2022-12-27T20:20:02.073Z,98720.97
2022-12-27T20:22:31.972Z,98718.22
2022-12-27T20:25:03.572Z,98723.53
2022-12-27T20:27:33.791Z,98726.19
2022-12-27T20:30:04.846Z,98726.69
2022-12-27T20:32:34.783Z,98722.75
2022-12-27T20:35:04.001Z,98726.69
2022-12-27T20:37:33.745Z,98718.16
2022-12-27T20:40:02.589Z,98714.63
2022-12-27T20:42:32.802Z,98714.03
2022-12-27T20:45:02.687Z,98717.91
2022-12-27T20:47:32.055Z,98722.03
2022-12-27T20:50:05.382Z,98714.84
2022-12-27T20:52:34.453Z,98714.63
2022-12-27T20:55:02.822Z,98709.97
2022-12-27T20:57:36.899Z,98712.50
2022-12-27T21:00:07.557Z,98715.69
2022-12-27T21:02:36.514Z,98719.34
2022-12-27T21:05:07.946Z,98715.47
2022-12-27T21:07:37.486Z,98720.13
2022-12-27T21:10:09.407Z,98717.66
2022-12-27T21:12:40.279Z,98718.13
2022-12-27T21:15:10.991Z,98713.44
2022-12-27T21:17:40.411Z,98726.19
2022-12-27T21:20:13.822Z,98724.00
2022-12-27T21:22:42.533Z,98718.13
2022-12-27T21:25:11.256Z,98713.00
2022-12-27T21:27:40.280Z,98712.72
2022-12-27T21:30:12.120Z,98713.00
2022-12-27T21:32:40.679Z,98708.13
2022-12-27T21:35:15.614Z,98706.59
2022-12-27T21:37:43.979Z,98707.41
2022-12-27T21:40:13.591Z,98706.53
2022-12-27T21:42:41.971Z,98710.03
2022-12-27T21:45:10.964Z,98714.75
2022-12-27T21:47:39.520Z,98715.63
2022-12-27T21:50:08.165Z,98711.56
2022-12-27T21:52:37.962Z,98719.34
2022-12-27T21:55:06.881Z,98721.91
2022-12-27T21:57:35.298Z,98718.47
2022-12-27T22:00:03.777Z,98710.47
2022-12-27T22:02:33.184Z,98709.06
2022-12-27T22:05:01.633Z,98706.81
2022-12-27T22:07:30.195Z,98706.50
2022-12-27T22:09:59.959Z,98706.38
2022-12-27T22:12:28.364Z,98711.19
2022-12-27T22:14:56.657Z,98699.00
2022-12-27T22:17:25.120Z,98702.38
2022-12-27T22:19:54.480Z,98701.56
2022-12-27T22:22:22.829Z,98704.63
2022-12-27T22:24:52.563Z,98700.59
2022-12-27T22:27:22.381Z,98701.56
2022-12-27T22:29:50.792Z,98697.47
2022-12-27T22:32:19.135Z,98695.16
2022-12-27T22:34:47.523Z,98686.34
2022-12-27T22:37:16.190Z,98694.53
2022-12-27T22:39:44.752Z,98692.16
2022-12-27T22:42:13.059Z,98689.75
2022-12-27T22:44:43.842Z,98683.94
2022-12-27T22:47:28.327Z,98685.38
2022-12-27T22:49:57.153Z,98692.16
2022-12-27T22:52:25.587Z,98686.53
2022-12-27T22:55:04.140Z,98685.97
2022-12-27T22:57:36.215Z,98681.22
2022-12-27T23:00:09.576Z,98680.75
2022-12-27T23:02:38.229Z,98690.38
2022-12-27T23:05:08.610Z,98687.72
2022-12-27T23:08:04.646Z,98686.88
2022-12-27T23:10:25.753Z,98674.63
2022-12-27T23:12:54.260Z,98686.03
2022-12-27T23:15:24.147Z,98680.06
2022-12-27T23:17:53.741Z,98677.09
2022-12-27T23:20:22.285Z,98671.19
2022-12-27T23:22:51.187Z,98670.97
2022-12-27T23:25:19.611Z,98664.25
2022-12-27T23:27:48.011Z,98672.81
2022-12-27T23:30:16.683Z,98663.53
2022-12-27T23:32:46.518Z,98662.03
2022-12-27T23:35:15.224Z,98663.72
2022-12-27T23:37:43.559Z,98666.63
2022-12-27T23:40:13.086Z,98656.41
2022-12-27T23:42:41.633Z,98655.53
2022-12-27T23:45:12.429Z,98658.03
2022-12-27T23:47:41.266Z,98647.16
2022-12-27T23:50:15.825Z,98643.47
2022-12-27T23:52:48.342Z,98640.75
2022-12-27T23:55:18.294Z,98631.06
2022-12-27T23:57:46.788Z,98625.97
